createdAt,value
2017-02-09T00:00:11.216Z,0
2017-02-09T00:00:51.883Z,0
2017-02-09T00:01:32.461Z,0
2017-02-09T00:02:13.089Z,0
2017-02-09T00:02:53.731Z,0
2017-02-09T00:03:34.397Z,0
2017-02-09T00:04:15.049Z,0
2017-02-09T00:04:55.701Z,0
2017-02-09T00:05:36.267Z,0
2017-02-09T00:06:16.851Z,0
2017-02-09T00:06:57.432Z,0
2017-02-09T00:07:38.119Z,0
2017-02-09T00:08:18.711Z,0
2017-02-09T00:08:59.354Z,0
2017-02-09T00:09:39.964Z,0
2017-02-09T00:10:20.617Z,0
2017-02-09T00:11:01.201Z,0
2017-02-09T00:11:42.843Z,0
2017-02-09T00:12:23.497Z,0
2017-02-09T00:13:04.067Z,0
2017-02-09T00:13:44.696Z,0
2017-02-09T00:14:25.355Z,0
2017-02-09T00:15:05.915Z,0
2017-02-09T00:15:46.583Z,0
2017-02-09T00:16:27.229Z,0
2017-02-09T00:17:07.800Z,0
2017-02-09T00:17:48.411Z,0
2017-02-09T00:18:28.964Z,0
2017-02-09T00:19:09.525Z,0
2017-02-09T00:19:50.167Z,0
2017-02-09T00:20:30.818Z,0
2017-02-09T00:21:11.484Z,0
2017-02-09T00:21:52.118Z,0
2017-02-09T00:22:32.781Z,0
2017-02-09T00:23:13.421Z,0
2017-02-09T00:23:54.080Z,0
2017-02-09T00:24:34.737Z,0
2017-02-09T00:25:15.385Z,0
2017-02-09T00:25:55.939Z,0
2017-02-09T00:26:36.542Z,0
2017-02-09T00:27:17.144Z,0
2017-02-09T00:27:57.791Z,0
2017-02-09T00:28:38.349Z,0
2017-02-09T00:29:18.949Z,0
2017-02-09T00:29:59.555Z,0
2017-02-09T00:30:40.116Z,0
2017-02-09T00:31:20.776Z,0
2017-02-09T00:32:01.402Z,0
2017-02-09T00:32:41.967Z,0
2017-02-09T00:33:22.620Z,0
2017-02-09T00:34:03.274Z,0
2017-02-09T00:34:43.834Z,0
2017-02-09T00:35:24.485Z,0
2017-02-09T00:36:05.121Z,0
2017-02-09T00:36:45.690Z,0
2017-02-09T00:37:26.326Z,0
2017-02-09T00:38:06.973Z,0
2017-02-09T00:38:47.549Z,0
2017-02-09T00:39:28.170Z,0
2017-02-09T00:40:08.847Z,0
2017-02-09T00:40:49.400Z,0
2017-02-09T00:41:29.980Z,0
2017-02-09T00:42:10.604Z,0
2017-02-09T00:42:51.232Z,0
2017-02-09T00:43:32.586Z,0
2017-02-09T00:44:13.204Z,0
2017-02-09T00:44:53.804Z,0
2017-02-09T00:45:34.380Z,0
2017-02-09T00:46:14.965Z,0
2017-02-09T00:46:55.678Z,0
2017-02-09T00:47:36.334Z,0
2017-02-09T00:48:16.881Z,0
2017-02-09T00:48:57.532Z,0
2017-02-09T00:49:38.176Z,0
2017-02-09T00:50:18.734Z,0
2017-02-09T00:50:59.294Z,0
2017-02-09T00:51:39.933Z,0
2017-02-09T00:52:20.494Z,0
2017-02-09T00:53:01.095Z,0
2017-02-09T00:53:41.680Z,0
2017-02-09T00:54:22.247Z,0
2017-02-09T00:55:02.897Z,0
2017-02-09T00:55:43.551Z,0
2017-02-09T00:56:24.102Z,0
2017-02-09T00:57:04.695Z,0
2017-02-09T00:57:45.318Z,0
2017-02-09T00:58:25.947Z,0
2017-02-09T00:59:06.514Z,0
2017-02-09T00:59:47.105Z,0
2017-02-09T01:00:27.811Z,0
2017-02-09T01:01:08.465Z,0
2017-02-09T01:01:49.027Z,0
2017-02-09T01:02:29.616Z,0
2017-02-09T01:03:10.219Z,0
2017-02-09T01:03:50.873Z,0
2017-02-09T01:04:31.438Z,0
2017-02-09T01:05:12.028Z,0
2017-02-09T01:05:52.680Z,0
2017-02-09T01:06:33.318Z,0
2017-02-09T01:07:13.974Z,0
2017-02-09T01:07:55.222Z,0
2017-02-09T01:08:35.898Z,0
2017-02-09T01:09:16.578Z,0
2017-02-09T01:09:57.193Z,0
2017-02-09T01:10:37.803Z,0
2017-02-09T01:11:18.461Z,0
2017-02-09T01:11:59.042Z,0
2017-02-09T01:12:39.631Z,0
2017-02-09T01:13:20.328Z,0
2017-02-09T01:14:00.973Z,0
2017-02-09T01:14:41.544Z,0
2017-02-09T01:15:22.111Z,0
2017-02-09T01:16:02.828Z,0
2017-02-09T01:16:43.492Z,0
2017-02-09T01:17:25.053Z,0
2017-02-09T01:18:05.706Z,0
2017-02-09T01:18:46.358Z,0
2017-02-09T01:19:27.011Z,0
2017-02-09T01:20:07.572Z,0
2017-02-09T01:20:48.180Z,0
2017-02-09T01:21:28.764Z,0
2017-02-09T01:22:09.418Z,0
2017-02-09T01:22:49.998Z,0
2017-02-09T01:23:30.579Z,0
2017-02-09T01:24:11.174Z,0
2017-02-09T01:24:51.828Z,0
2017-02-09T01:25:32.478Z,0
2017-02-09T01:26:13.142Z,0
2017-02-09T01:27:00.645Z,0
2017-02-09T01:27:41.296Z,0
2017-02-09T01:28:21.958Z,0
2017-02-09T01:29:02.603Z,0
2017-02-09T01:29:43.182Z,0
2017-02-09T01:30:23.762Z,0
2017-02-09T01:31:04.378Z,0
2017-02-09T01:31:45.008Z,0
2017-02-09T01:32:25.563Z,0
2017-02-09T01:33:06.180Z,0
2017-02-09T01:33:46.759Z,0
2017-02-09T01:34:27.418Z,0
2017-02-09T01:35:07.979Z,0
2017-02-09T01:35:48.620Z,0
2017-02-09T01:36:29.186Z,0
2017-02-09T01:37:09.760Z,0
2017-02-09T01:37:50.381Z,0
2017-02-09T01:38:30.940Z,0
2017-02-09T01:39:11.503Z,0
2017-02-09T01:39:52.118Z,0
2017-02-09T01:40:32.785Z,0
2017-02-09T01:41:13.358Z,0
2017-02-09T01:41:53.982Z,0
2017-02-09T01:42:34.635Z,0
2017-02-09T01:43:15.216Z,0
2017-02-09T01:43:55.843Z,0
2017-02-09T01:44:36.519Z,0
2017-02-09T01:45:17.076Z,0
2017-02-09T01:45:57.786Z,0
2017-02-09T01:46:38.451Z,0
2017-02-09T01:47:19.030Z,0
2017-02-09T01:47:59.610Z,0
2017-02-09T01:48:40.256Z,0
2017-02-09T01:49:20.871Z,0
2017-02-09T01:50:01.550Z,0
2017-02-09T01:50:42.112Z,0
2017-02-09T01:51:22.717Z,0
2017-02-09T01:52:03.366Z,0
2017-02-09T01:52:43.927Z,0
2017-02-09T01:53:24.569Z,0
2017-02-09T01:54:05.220Z,0
2017-02-09T01:54:45.774Z,0
2017-02-09T01:55:26.424Z,0
2017-02-09T01:56:07.077Z,0
2017-02-09T01:56:47.741Z,0
2017-02-09T01:57:28.383Z,0
2017-02-09T01:58:09.035Z,0
2017-02-09T01:58:49.689Z,0
2017-02-09T01:59:30.271Z,0
2017-02-09T02:00:10.841Z,0
2017-02-09T02:00:51.536Z,0
2017-02-09T02:01:32.196Z,0
2017-02-09T02:02:12.850Z,0
2017-02-09T02:02:53.415Z,0
2017-02-09T02:03:34.016Z,0
2017-02-09T02:04:14.624Z,0
2017-02-09T02:04:55.271Z,0
2017-02-09T02:05:35.896Z,0
2017-02-09T02:06:16.565Z,0
2017-02-09T02:06:58.242Z,0
2017-02-09T02:07:38.826Z,0
2017-02-09T02:08:19.454Z,0
2017-02-09T02:09:00.107Z,0
2017-02-09T02:09:40.685Z,0
2017-02-09T02:10:21.310Z,0
2017-02-09T02:11:01.952Z,0
2017-02-09T02:11:42.532Z,0
2017-02-09T02:12:23.153Z,0
2017-02-09T02:13:03.814Z,0
2017-02-09T02:13:44.387Z,0
2017-02-09T02:14:25.013Z,0
2017-02-09T02:15:05.669Z,0
2017-02-09T02:15:46.318Z,0
2017-02-09T02:16:26.975Z,0
2017-02-09T02:17:07.625Z,0
2017-02-09T02:17:48.281Z,0
2017-02-09T02:18:28.947Z,0
2017-02-09T02:19:09.689Z,0
2017-02-09T02:19:50.348Z,0
2017-02-09T02:20:30.916Z,0
2017-02-09T02:21:11.543Z,0
2017-02-09T02:21:52.191Z,0
2017-02-09T02:22:32.753Z,0
2017-02-09T02:23:13.397Z,0
2017-02-09T02:23:54.062Z,0
2017-02-09T02:24:34.647Z,0
2017-02-09T02:25:15.358Z,0
2017-02-09T02:25:56.120Z,0
2017-02-09T02:26:36.865Z,0
2017-02-09T02:27:17.545Z,0
2017-02-09T02:27:58.325Z,0
2017-02-09T02:28:39.026Z,0
2017-02-09T02:29:19.794Z,0
2017-02-09T02:30:00.555Z,0
2017-02-09T02:30:41.299Z,0
2017-02-09T02:31:22.075Z,0
2017-02-09T02:32:02.808Z,0
2017-02-09T02:32:43.496Z,0
2017-02-09T02:33:24.215Z,0
2017-02-09T02:34:04.971Z,0
2017-02-09T02:34:45.631Z,0
2017-02-09T02:35:26.383Z,0
2017-02-09T02:36:06.951Z,0
2017-02-09T02:36:47.686Z,0
2017-02-09T02:37:28.352Z,0
2017-02-09T02:38:08.912Z,0
2017-02-09T02:38:49.535Z,0
2017-02-09T02:39:30.204Z,0
2017-02-09T02:40:10.768Z,0
2017-02-09T02:40:51.399Z,0
2017-02-09T02:41:32.064Z,0
2017-02-09T02:42:12.712Z,0
2017-02-09T02:42:53.372Z,0
2017-02-09T02:43:34.016Z,0
2017-02-09T02:44:14.679Z,0
2017-02-09T02:44:55.317Z,0
2017-02-09T02:45:35.977Z,0
2017-02-09T02:46:16.620Z,0
2017-02-09T02:46:57.288Z,0
2017-02-09T02:47:37.941Z,0
2017-02-09T02:48:18.587Z,0
2017-02-09T02:48:59.244Z,0
2017-02-09T02:49:39.894Z,0
2017-02-09T02:50:20.557Z,0
2017-02-09T02:51:01.216Z,0
2017-02-09T02:51:41.866Z,0
2017-02-09T02:52:22.505Z,0
2017-02-09T02:53:03.173Z,0
2017-02-09T02:53:43.819Z,0
2017-02-09T02:54:24.466Z,0
2017-02-09T02:55:05.027Z,0
2017-02-09T02:55:45.621Z,0
2017-02-09T02:56:26.212Z,0
2017-02-09T02:57:06.869Z,0
2017-02-09T02:57:47.435Z,0
2017-02-09T02:58:28.037Z,0
2017-02-09T02:59:08.624Z,0
2017-02-09T02:59:49.288Z,0
2017-02-09T03:00:29.932Z,0
2017-02-09T03:01:10.593Z,0
2017-02-09T03:01:51.237Z,0
2017-02-09T03:02:31.900Z,0
2017-02-09T03:03:12.541Z,0
2017-02-09T03:03:53.196Z,0
2017-02-09T03:04:33.846Z,0
2017-02-09T03:05:14.511Z,0
2017-02-09T03:05:55.162Z,0
2017-02-09T03:06:35.817Z,0
2017-02-09T03:07:16.469Z,0
2017-02-09T03:07:57.130Z,0
2017-02-09T03:08:37.775Z,0
2017-02-09T03:09:18.417Z,0
2017-02-09T03:09:59.080Z,0
2017-02-09T03:10:39.732Z,0
2017-02-09T03:11:20.386Z,0
2017-02-09T03:12:01.026Z,0
2017-02-09T03:12:41.693Z,0
2017-02-09T03:13:22.344Z,0
2017-02-09T03:14:03.017Z,0
2017-02-09T03:14:43.650Z,0
2017-02-09T03:15:24.294Z,0
2017-02-09T03:16:04.944Z,0
2017-02-09T03:16:45.506Z,0
2017-02-09T03:17:26.160Z,0
2017-02-09T03:18:06.742Z,0
2017-02-09T03:18:47.414Z,0
2017-02-09T03:19:28.074Z,0
2017-02-09T03:20:08.722Z,0
2017-02-09T03:20:49.320Z,0
2017-02-09T03:21:29.886Z,0
2017-02-09T03:22:10.526Z,0
2017-02-09T03:22:51.178Z,0
2017-02-09T03:23:31.763Z,0
2017-02-09T03:24:12.372Z,0
2017-02-09T03:24:53.031Z,0
2017-02-09T03:25:33.678Z,0
2017-02-09T03:26:14.337Z,0
2017-02-09T03:26:54.991Z,0
2017-02-09T03:27:35.649Z,0
2017-02-09T03:28:16.296Z,0
2017-02-09T03:28:56.948Z,0
2017-02-09T03:29:37.601Z,0
2017-02-09T03:30:18.160Z,0
2017-02-09T03:30:58.758Z,0
2017-02-09T03:31:39.351Z,0
2017-02-09T03:32:20.026Z,0
2017-02-09T03:33:00.572Z,0
2017-02-09T03:33:41.164Z,0
2017-02-09T03:34:21.752Z,0
2017-02-09T03:35:02.314Z,0
2017-02-09T03:35:42.875Z,0
2017-02-09T03:36:23.481Z,0
2017-02-09T03:37:04.065Z,0
2017-02-09T03:37:44.641Z,0
2017-02-09T03:38:25.229Z,0
2017-02-09T03:39:05.803Z,0
2017-02-09T03:39:46.355Z,0
2017-02-09T03:40:26.921Z,0
2017-02-09T03:41:07.488Z,0
2017-02-09T03:41:48.062Z,0
2017-02-09T03:42:28.632Z,0
2017-02-09T03:43:09.197Z,0
2017-02-09T03:43:49.754Z,0
2017-02-09T03:44:30.330Z,0
2017-02-09T03:45:10.903Z,0
2017-02-09T03:45:51.455Z,0
2017-02-09T03:46:32.017Z,0
2017-02-09T03:47:12.578Z,0
2017-02-09T03:47:53.153Z,0
2017-02-09T03:48:33.725Z,0
2017-02-09T03:49:14.294Z,0
2017-02-09T03:49:54.860Z,0
2017-02-09T03:50:35.439Z,0
2017-02-09T03:51:16.007Z,0
2017-02-09T03:51:56.559Z,0
2017-02-09T03:52:37.133Z,0
2017-02-09T03:53:17.714Z,0
2017-02-09T03:53:58.288Z,0
2017-02-09T03:54:38.849Z,0
2017-02-09T03:55:19.414Z,0
2017-02-09T03:56:00.002Z,0
2017-02-09T03:56:40.568Z,0
2017-02-09T03:57:22.127Z,0
2017-02-09T03:58:02.700Z,0
2017-02-09T03:58:43.275Z,0
2017-02-09T03:59:23.846Z,0
2017-02-09T04:00:04.398Z,0
2017-02-09T04:00:44.965Z,0
2017-02-09T04:01:25.546Z,0
2017-02-09T04:02:06.101Z,0
2017-02-09T04:02:46.674Z,0
2017-02-09T04:03:27.251Z,0
2017-02-09T04:04:07.801Z,0
2017-02-09T04:04:48.349Z,0
2017-02-09T04:05:28.920Z,0
2017-02-09T04:06:09.479Z,0
2017-02-09T04:06:50.068Z,0
2017-02-09T04:07:30.655Z,0
2017-02-09T04:08:11.207Z,0
2017-02-09T04:08:51.784Z,0
2017-02-09T04:09:32.367Z,0
2017-02-09T04:10:12.927Z,0
2017-02-09T04:10:53.481Z,0
2017-02-09T04:11:34.058Z,0
2017-02-09T04:12:14.627Z,0
2017-02-09T04:12:55.214Z,0
2017-02-09T04:13:35.816Z,0
2017-02-09T04:14:16.368Z,0
2017-02-09T04:14:56.945Z,0
2017-02-09T04:15:37.526Z,0
2017-02-09T04:16:19.000Z,0
2017-02-09T04:16:59.563Z,0
2017-02-09T04:17:40.138Z,0
2017-02-09T04:18:20.712Z,0
2017-02-09T04:19:01.267Z,0
2017-02-09T04:19:41.852Z,0
2017-02-09T04:20:22.416Z,0
2017-02-09T04:21:02.995Z,0
2017-02-09T04:21:43.595Z,0
2017-02-09T04:22:24.178Z,0
2017-02-09T04:23:04.735Z,0
2017-02-09T04:23:45.315Z,0
2017-02-09T04:24:26.902Z,0
2017-02-09T04:25:07.475Z,0
2017-02-09T04:25:48.054Z,0
2017-02-09T04:26:28.626Z,0
2017-02-09T04:27:09.194Z,0
2017-02-09T04:27:49.764Z,0
2017-02-09T04:28:30.335Z,0
2017-02-09T04:29:11.893Z,0
2017-02-09T04:29:52.484Z,0
2017-02-09T04:30:33.048Z,0
2017-02-09T04:31:14.472Z,0
2017-02-09T04:31:55.041Z,0
2017-02-09T04:32:35.599Z,0
2017-02-09T04:33:16.237Z,0
2017-02-09T04:33:56.809Z,0
2017-02-09T04:34:37.384Z,0
2017-02-09T04:35:17.966Z,0
2017-02-09T04:35:58.561Z,0
2017-02-09T04:36:39.115Z,0
2017-02-09T04:37:19.700Z,0
2017-02-09T04:38:00.243Z,0
2017-02-09T04:38:40.807Z,0
2017-02-09T04:39:21.379Z,0
2017-02-09T04:40:01.953Z,0
2017-02-09T04:40:42.526Z,0
2017-02-09T04:41:23.089Z,0
2017-02-09T04:42:03.656Z,0
2017-02-09T04:42:44.253Z,0
2017-02-09T04:43:24.849Z,0
2017-02-09T04:44:05.402Z,0
2017-02-09T04:44:45.962Z,0
2017-02-09T04:45:26.547Z,0
2017-02-09T04:46:07.106Z,0
2017-02-09T04:46:47.676Z,0
2017-02-09T04:47:28.241Z,0
2017-02-09T04:48:08.817Z,0
2017-02-09T04:48:49.384Z,0
2017-02-09T04:49:29.961Z,0
2017-02-09T04:50:10.525Z,0
2017-02-09T04:50:51.092Z,0
2017-02-09T04:51:31.660Z,0
2017-02-09T04:52:12.230Z,0
2017-02-09T04:52:52.816Z,0
2017-02-09T04:53:33.375Z,0
2017-02-09T04:54:13.951Z,0
2017-02-09T04:54:54.525Z,72
2017-02-09T04:55:35.084Z,76
2017-02-09T04:56:15.676Z,0
2017-02-09T04:56:56.268Z,0
2017-02-09T04:57:36.854Z,0
2017-02-09T04:58:17.439Z,0
2017-02-09T04:58:58.013Z,0
2017-02-09T04:59:38.574Z,0
2017-02-09T05:00:19.141Z,0
2017-02-09T05:00:59.734Z,0
2017-02-09T05:01:40.318Z,0
2017-02-09T05:02:20.882Z,0
2017-02-09T05:03:01.449Z,0
2017-02-09T05:03:42.035Z,0
2017-02-09T05:04:22.589Z,0
2017-02-09T05:05:03.163Z,0
2017-02-09T05:05:43.723Z,0
2017-02-09T05:06:24.286Z,0
2017-02-09T05:07:04.872Z,0
2017-02-09T05:07:45.443Z,0
2017-02-09T05:08:26.025Z,0
2017-02-09T05:09:06.601Z,0
2017-02-09T05:09:47.169Z,0
2017-02-09T05:10:27.729Z,0
2017-02-09T05:11:08.299Z,0
2017-02-09T05:11:48.885Z,0
2017-02-09T05:12:29.444Z,0
2017-02-09T05:13:10.007Z,0
2017-02-09T05:13:50.576Z,76
2017-02-09T05:14:31.147Z,0
2017-02-09T05:15:11.712Z,0
2017-02-09T05:15:52.286Z,0
2017-02-09T05:16:32.857Z,0
2017-02-09T05:17:13.431Z,0
2017-02-09T05:17:54.068Z,0
2017-02-09T05:18:34.653Z,0
2017-02-09T05:19:15.224Z,0
2017-02-09T05:19:55.795Z,0
2017-02-09T05:20:36.367Z,0
2017-02-09T05:21:16.967Z,0
2017-02-09T05:21:57.543Z,0
2017-02-09T05:22:38.116Z,0
2017-02-09T05:23:18.676Z,0
2017-02-09T05:23:59.274Z,0
2017-02-09T05:24:39.879Z,0
2017-02-09T05:25:20.443Z,0
2017-02-09T05:26:01.013Z,0
2017-02-09T05:26:41.586Z,0
2017-02-09T05:27:22.173Z,0
2017-02-09T05:28:02.738Z,0
2017-02-09T05:28:43.326Z,0
2017-02-09T05:29:23.911Z,0
2017-02-09T05:30:04.467Z,0
2017-02-09T05:30:45.047Z,0
2017-02-09T05:31:25.622Z,0
2017-02-09T05:32:06.188Z,0
2017-02-09T05:32:46.765Z,76
2017-02-09T05:33:27.343Z,80
2017-02-09T05:34:07.904Z,0
2017-02-09T05:34:48.483Z,0
2017-02-09T05:35:29.060Z,0
2017-02-09T05:36:09.621Z,0
2017-02-09T05:36:50.191Z,0
2017-02-09T05:37:30.762Z,0
2017-02-09T05:38:11.348Z,0
2017-02-09T05:38:51.922Z,0
2017-02-09T05:39:32.472Z,0
2017-02-09T05:40:13.042Z,0
2017-02-09T05:40:53.594Z,0
2017-02-09T05:41:34.155Z,0
2017-02-09T05:42:14.717Z,0
2017-02-09T05:42:55.271Z,0
2017-02-09T05:43:35.860Z,0
2017-02-09T05:44:16.435Z,0
2017-02-09T05:44:57.011Z,0
2017-02-09T05:45:37.577Z,0
2017-02-09T05:46:18.161Z,0
2017-02-09T05:46:58.732Z,0
2017-02-09T05:47:39.304Z,0
2017-02-09T05:48:19.872Z,0
2017-02-09T05:49:02.463Z,0
2017-02-09T05:49:43.016Z,0
2017-02-09T05:50:23.623Z,0
2017-02-09T05:51:04.187Z,0
2017-02-09T05:51:44.755Z,0
2017-02-09T05:52:25.320Z,0
2017-02-09T05:53:06.889Z,0
2017-02-09T05:53:48.461Z,0
2017-02-09T05:54:29.032Z,0
2017-02-09T05:55:09.638Z,0
2017-02-09T05:55:54.158Z,0
2017-02-09T05:56:34.730Z,0
2017-02-09T05:57:15.307Z,0
2017-02-09T05:57:55.866Z,0
2017-02-09T05:58:36.445Z,0
2017-02-09T05:59:17.012Z,0
2017-02-09T05:59:57.588Z,0
2017-02-09T06:00:38.161Z,0
2017-02-09T06:01:18.729Z,0
2017-02-09T06:01:59.303Z,0
2017-02-09T06:02:39.865Z,0
2017-02-09T06:03:20.438Z,0
2017-02-09T06:04:01.023Z,0
2017-02-09T06:04:41.641Z,0
2017-02-09T06:05:22.219Z,0
2017-02-09T06:06:02.789Z,0
2017-02-09T06:06:43.360Z,0
2017-02-09T06:07:23.932Z,0
2017-02-09T06:08:04.498Z,0
2017-02-09T06:08:45.073Z,0
2017-02-09T06:09:25.617Z,0
2017-02-09T06:10:06.251Z,0
2017-02-09T06:10:46.864Z,0
2017-02-09T06:11:27.441Z,0
2017-02-09T06:12:07.998Z,0
2017-02-09T06:12:48.582Z,0
2017-02-09T06:13:29.149Z,0
2017-02-09T06:14:09.731Z,0
2017-02-09T06:14:50.300Z,0
2017-02-09T06:15:30.883Z,0
2017-02-09T06:16:11.461Z,0
2017-02-09T06:16:52.041Z,0
2017-02-09T06:17:32.602Z,0
2017-02-09T06:18:13.178Z,0
2017-02-09T06:18:53.742Z,0
2017-02-09T06:19:34.312Z,0
2017-02-09T06:20:14.921Z,0
2017-02-09T06:20:55.602Z,0
2017-02-09T06:21:36.207Z,0
2017-02-09T06:22:16.779Z,0
2017-02-09T06:22:57.391Z,0
2017-02-09T06:23:37.981Z,0
2017-02-09T06:24:18.542Z,0
2017-02-09T06:24:59.105Z,0
2017-02-09T06:25:39.676Z,0
2017-02-09T06:26:20.259Z,0
2017-02-09T06:27:00.830Z,4
2017-02-09T06:27:41.389Z,4
2017-02-09T06:28:21.962Z,4
2017-02-09T06:29:02.532Z,4
2017-02-09T06:29:43.110Z,4
2017-02-09T06:30:23.701Z,0
2017-02-09T06:31:04.259Z,4
2017-02-09T06:31:44.821Z,4
2017-02-09T06:32:25.396Z,4
2017-02-09T06:33:05.978Z,4
2017-02-09T06:33:46.571Z,8
2017-02-09T06:34:27.153Z,4
2017-02-09T06:35:07.710Z,8
2017-02-09T06:35:48.330Z,8
2017-02-09T06:36:28.987Z,8
2017-02-09T06:37:09.543Z,8
2017-02-09T06:37:50.129Z,12
2017-02-09T06:38:30.704Z,8
2017-02-09T06:39:11.281Z,8
2017-02-09T06:39:51.826Z,16
2017-02-09T06:40:32.408Z,16
2017-02-09T06:41:13.031Z,16
2017-02-09T06:41:53.583Z,16
2017-02-09T06:42:34.156Z,16
2017-02-09T06:43:14.732Z,20
2017-02-09T06:43:55.317Z,24
2017-02-09T06:44:35.888Z,24
2017-02-09T06:45:16.452Z,28
2017-02-09T06:45:57.077Z,28
2017-02-09T06:46:37.640Z,28
2017-02-09T06:47:18.215Z,32
2017-02-09T06:47:58.792Z,32
2017-02-09T06:48:39.369Z,36
2017-02-09T06:49:19.933Z,40
2017-02-09T06:50:00.500Z,40
2017-02-09T06:50:41.070Z,48
2017-02-09T06:51:21.663Z,48
2017-02-09T06:52:02.246Z,52
2017-02-09T06:52:42.823Z,56
2017-02-09T06:53:23.402Z,56
2017-02-09T06:54:03.962Z,60
2017-02-09T06:54:44.593Z,64
2017-02-09T06:55:25.247Z,68
2017-02-09T06:56:05.816Z,72
2017-02-09T06:56:46.442Z,72
2017-02-09T06:57:27.015Z,80
2017-02-09T06:58:07.609Z,84
2017-02-09T06:58:48.212Z,88
2017-02-09T06:59:28.854Z,92
2017-02-09T07:00:09.426Z,96
2017-02-09T07:00:50.008Z,96
2017-02-09T07:01:30.714Z,104
2017-02-09T07:02:11.365Z,108
2017-02-09T07:02:51.920Z,116
2017-02-09T07:03:32.528Z,120
2017-02-09T07:04:13.225Z,124
2017-02-09T07:04:53.883Z,132
2017-02-09T07:05:34.472Z,140
2017-02-09T07:06:15.118Z,148
2017-02-09T07:06:55.777Z,156
2017-02-09T07:07:36.429Z,164
2017-02-09T07:08:17.074Z,172
2017-02-09T07:08:57.773Z,184
2017-02-09T07:09:38.386Z,192
2017-02-09T07:10:19.064Z,204
2017-02-09T07:10:59.752Z,212
2017-02-09T07:11:40.412Z,224
2017-02-09T07:12:21.058Z,236
2017-02-09T07:13:01.708Z,248
2017-02-09T07:13:42.365Z,264
2017-02-09T07:14:23.007Z,272
2017-02-09T07:15:03.667Z,288
2017-02-09T07:15:44.238Z,300
2017-02-09T07:16:24.879Z,320
2017-02-09T07:17:05.529Z,332
2017-02-09T07:17:46.104Z,348
2017-02-09T07:18:26.717Z,356
2017-02-09T07:19:07.381Z,372
2017-02-09T07:19:47.960Z,388
2017-02-09T07:20:28.585Z,396
2017-02-09T07:21:09.242Z,408
2017-02-09T07:21:49.890Z,416
2017-02-09T07:22:30.543Z,424
2017-02-09T07:23:11.202Z,436
2017-02-09T07:23:51.845Z,448
2017-02-09T07:24:32.491Z,464
2017-02-09T07:25:13.146Z,476
2017-02-09T07:25:53.716Z,488
2017-02-09T07:26:34.309Z,496
2017-02-09T07:27:14.885Z,500
2017-02-09T07:27:55.560Z,504
2017-02-09T07:28:36.203Z,508
2017-02-09T07:29:16.842Z,516
2017-02-09T07:29:57.622Z,524
2017-02-09T07:30:38.333Z,532
2017-02-09T07:31:18.853Z,548
2017-02-09T07:31:59.469Z,552
2017-02-09T07:32:40.120Z,564
2017-02-09T07:33:20.764Z,568
2017-02-09T07:34:01.433Z,580
2017-02-09T07:34:42.288Z,588
2017-02-09T07:35:23.228Z,604
2017-02-09T07:36:08.819Z,616
2017-02-09T07:36:49.369Z,628
2017-02-09T07:37:30.117Z,640
2017-02-09T07:38:10.875Z,648
2017-02-09T07:38:51.550Z,664
2017-02-09T07:39:32.186Z,676
2017-02-09T07:40:12.834Z,688
2017-02-09T07:40:53.606Z,700
2017-02-09T07:41:34.256Z,720
2017-02-09T07:42:14.900Z,732
2017-02-09T07:42:55.773Z,744
2017-02-09T07:43:36.508Z,764
2017-02-09T07:44:17.163Z,780
2017-02-09T07:44:57.922Z,796
2017-02-09T07:45:38.495Z,816
2017-02-09T07:46:19.209Z,832
2017-02-09T07:46:59.778Z,848
2017-02-09T07:47:40.432Z,868
2017-02-09T07:48:21.011Z,892
2017-02-09T07:49:01.587Z,904
2017-02-09T07:49:42.310Z,920
2017-02-09T07:50:23.073Z,936
2017-02-09T07:51:03.627Z,956
2017-02-09T07:51:44.361Z,972
2017-02-09T07:52:25.234Z,996
2017-02-09T07:53:06.010Z,1020
2017-02-09T07:53:46.914Z,1048
2017-02-09T07:54:27.687Z,1080
2017-02-09T07:55:08.277Z,1108
2017-02-09T07:55:48.934Z,1140
2017-02-09T07:56:29.560Z,1156
2017-02-09T07:57:10.329Z,1180
2017-02-09T07:57:51.062Z,1204
2017-02-09T07:58:31.834Z,1224
2017-02-09T07:59:12.489Z,1248
2017-02-09T07:59:53.164Z,1264
2017-02-09T08:00:33.747Z,1280
2017-02-09T08:01:14.413Z,1304
2017-02-09T08:01:55.067Z,1324
2017-02-09T08:02:35.628Z,1348
2017-02-09T08:03:16.320Z,1364
2017-02-09T08:03:56.918Z,1376
2017-02-09T08:04:37.580Z,1392
2017-02-09T08:05:18.151Z,1416
2017-02-09T08:05:58.731Z,1444
2017-02-09T08:06:39.440Z,1476
2017-02-09T08:07:20.087Z,1504
2017-02-09T08:08:00.660Z,1520
2017-02-09T08:08:41.247Z,1532
2017-02-09T08:09:21.836Z,1548
2017-02-09T08:10:02.486Z,1564
2017-02-09T08:10:43.045Z,1584
2017-02-09T08:11:23.634Z,1604
2017-02-09T08:12:04.345Z,1612
2017-02-09T08:12:45.003Z,1624
2017-02-09T08:13:25.650Z,1628
2017-02-09T08:14:06.303Z,1644
2017-02-09T08:14:46.967Z,1672
2017-02-09T08:15:27.622Z,1692
2017-02-09T08:16:08.171Z,1720
2017-02-09T08:16:48.750Z,1748
2017-02-09T08:17:30.418Z,1780
2017-02-09T08:18:11.043Z,1800
2017-02-09T08:18:51.604Z,1820
2017-02-09T08:19:32.191Z,1832
2017-02-09T08:20:12.797Z,1848
2017-02-09T08:20:53.449Z,1864
2017-02-09T08:21:34.019Z,1876
2017-02-09T08:22:14.687Z,1880
2017-02-09T08:22:55.302Z,1880
2017-02-09T08:23:35.864Z,1888
2017-02-09T08:24:16.506Z,1912
2017-02-09T08:24:57.066Z,1924
2017-02-09T08:25:37.620Z,1932
2017-02-09T08:26:18.261Z,1956
2017-02-09T08:26:59.509Z,1976
2017-02-09T08:27:40.079Z,1988
2017-02-09T08:28:20.779Z,1992
2017-02-09T08:29:01.394Z,2008
2017-02-09T08:29:42.043Z,2008
2017-02-09T08:30:22.700Z,2008
2017-02-09T08:31:03.343Z,2000
2017-02-09T08:31:44.004Z,2008
2017-02-09T08:32:24.580Z,2004
2017-02-09T08:33:05.213Z,2004
2017-02-09T08:33:45.853Z,2020
2017-02-09T08:34:26.420Z,2016
2017-02-09T08:35:07.063Z,2016
2017-02-09T08:35:47.724Z,2048
2017-02-09T08:36:28.298Z,2068
2017-02-09T08:37:08.967Z,2060
2017-02-09T08:37:49.566Z,2036
2017-02-09T08:38:30.231Z,2016
2017-02-09T08:39:10.796Z,2016
2017-02-09T08:39:51.384Z,2012
2017-02-09T08:40:31.984Z,2008
2017-02-09T08:41:12.634Z,2004
2017-02-09T08:41:53.202Z,2016
2017-02-09T08:42:33.889Z,2036
2017-02-09T08:43:14.486Z,2060
2017-02-09T08:43:55.078Z,2100
2017-02-09T08:44:35.697Z,2112
2017-02-09T08:45:16.348Z,2124
2017-02-09T08:45:56.912Z,2132
2017-02-09T08:46:37.552Z,2140
2017-02-09T08:47:18.198Z,2164
2017-02-09T08:47:58.771Z,2192
2017-02-09T08:48:39.398Z,2212
2017-02-09T08:49:20.063Z,2224
2017-02-09T08:50:00.628Z,2232
2017-02-09T08:50:41.256Z,2256
2017-02-09T08:51:21.934Z,2284
2017-02-09T08:52:02.476Z,2300
2017-02-09T08:52:43.177Z,2304
2017-02-09T08:53:23.777Z,2320
2017-02-09T08:54:04.426Z,2332
2017-02-09T08:54:44.996Z,2340
2017-02-09T08:55:25.572Z,2348
2017-02-09T08:56:06.176Z,2364
2017-02-09T08:56:46.822Z,2464
2017-02-09T08:57:27.480Z,2484
2017-02-09T08:58:08.154Z,2420
2017-02-09T08:58:48.787Z,2448
2017-02-09T08:59:29.458Z,2476
2017-02-09T09:00:10.019Z,2492
2017-02-09T09:00:50.712Z,2512
2017-02-09T09:01:31.298Z,2528
2017-02-09T09:02:11.849Z,2544
2017-02-09T09:02:52.502Z,2580
2017-02-09T09:03:33.145Z,2620
2017-02-09T09:04:13.804Z,2636
2017-02-09T09:04:54.459Z,2644
2017-02-09T09:05:35.031Z,2648
2017-02-09T09:06:15.680Z,2652
2017-02-09T09:06:56.348Z,2688
2017-02-09T09:07:37.075Z,2716
2017-02-09T09:08:17.721Z,2748
2017-02-09T09:08:58.375Z,2784
2017-02-09T09:09:39.045Z,2816
2017-02-09T09:10:19.691Z,2840
2017-02-09T09:11:00.325Z,2856
2017-02-09T09:11:41.010Z,2892
2017-02-09T09:12:21.558Z,2916
2017-02-09T09:13:02.204Z,2948
2017-02-09T09:13:42.868Z,2976
2017-02-09T09:14:23.431Z,3008
2017-02-09T09:15:04.070Z,3040
2017-02-09T09:15:44.710Z,3076
2017-02-09T09:16:25.278Z,3132
2017-02-09T09:17:05.900Z,3168
2017-02-09T09:17:46.564Z,3204
2017-02-09T09:18:27.130Z,3248
2017-02-09T09:19:07.775Z,3272
2017-02-09T09:19:48.522Z,3292
2017-02-09T09:20:29.105Z,3304
2017-02-09T09:21:09.749Z,3316
2017-02-09T09:21:50.371Z,3448
2017-02-09T09:22:31.025Z,3420
2017-02-09T09:23:11.680Z,3340
2017-02-09T09:23:52.342Z,3352
2017-02-09T09:24:33.003Z,3352
2017-02-09T09:25:13.645Z,3404
2017-02-09T09:25:54.288Z,3440
2017-02-09T09:26:34.949Z,3480
2017-02-09T09:27:15.532Z,3532
2017-02-09T09:27:56.207Z,3572
2017-02-09T09:28:37.837Z,3608
2017-02-09T09:29:18.476Z,3636
2017-02-09T09:29:59.044Z,3672
2017-02-09T09:30:39.621Z,3720
2017-02-09T09:31:20.282Z,3756
2017-02-09T09:32:01.013Z,3768
2017-02-09T09:32:41.558Z,3800
2017-02-09T09:33:22.260Z,3804
2017-02-09T09:34:02.913Z,3824
2017-02-09T09:34:43.571Z,3828
2017-02-09T09:35:24.274Z,3844
2017-02-09T09:36:04.958Z,3860
2017-02-09T09:36:45.675Z,3848
2017-02-09T09:37:26.417Z,3828
2017-02-09T09:38:07.009Z,3808
2017-02-09T09:38:47.682Z,3820
2017-02-09T09:39:28.285Z,3836
2017-02-09T09:40:08.853Z,3824
2017-02-09T09:40:49.410Z,3816
2017-02-09T09:41:30.101Z,3812
2017-02-09T09:42:10.688Z,3820
2017-02-09T09:42:51.332Z,3840
2017-02-09T09:43:31.895Z,3836